Time;durP1;ratioP1;P1;durP2;ratioP2;P2;SDS_P1;SDS_P2;PMS_P1;PMS_P2;Temp;Humidity;BMP_temperature;BMP_pressure;BME280_temperature;BME280_humidity;BME280_pressure;Samples;Min_cycle;Max_cycle;Signal;HPM_P1;HPM_P2
2023/08/22 00:02:04;;;;;;;13.07;6.90;;;;;;;27.11;53.97;99886.97;4351898;32;33244;-71
2023/08/22 00:04:32;;;;;;;8.45;6.25;;;;;;;27.23;53.79;99892.66;4350606;32;33769;-72
2023/08/22 00:06:59;;;;;;;9.68;7.30;;;;;;;27.30;53.56;99893.47;4357105;32;34711;-71
2023/08/22 00:09:27;;;;;;;16.83;6.47;;;;;;;27.29;53.39;99889.88;4355001;32;33948;-72
2023/08/22 00:11:55;;;;;;;10.75;6.22;;;;;;;27.27;53.67;99882.91;4356495;32;34264;-73
2023/08/22 00:14:22;;;;;;;9.98;6.50;;;;;;;27.33;53.34;99884.78;4352646;32;33253;-72
2023/08/22 00:16:50;;;;;;;12.63;7.53;;;;;;;27.31;53.36;99884.16;4359059;32;35352;-72
2023/08/22 00:19:17;;;;;;;9.90;7.57;;;;;;;27.30;53.25;99883.31;4353060;32;33780;-71
2023/08/22 00:21:45;;;;;;;10.20;7.18;;;;;;;27.25;53.40;99887.78;4360883;32;33548;-71
2023/08/22 00:24:13;;;;;;;9.50;7.22;;;;;;;27.24;53.57;99886.09;4357632;32;32924;-71
2023/08/22 00:26:40;;;;;;;10.23;7.65;;;;;;;27.27;53.58;99882.91;4358312;32;32307;-71
2023/08/22 00:29:08;;;;;;;13.95;6.47;;;;;;;27.29;53.78;99883.53;4357262;32;33758;-71
2023/08/22 00:31:35;;;;;;;9.98;6.07;;;;;;;27.26;54.06;99892.22;4358552;32;34478;-71
2023/08/22 00:34:03;;;;;;;10.60;7.07;;;;;;;27.31;53.97;99885.00;4358429;32;34835;-71
2023/08/22 00:36:31;;;;;;;11.52;6.28;;;;;;;27.34;54.09;99883.72;4352723;32;34640;-71
2023/08/22 00:38:58;;;;;;;9.02;6.10;;;;;;;27.28;53.96;99879.94;4353910;32;34322;-71
2023/08/22 00:41:26;;;;;;;13.13;7.97;;;;;;;27.17;53.89;99877.91;4354043;32;32334;-71
2023/08/22 00:43:54;;;;;;;9.82;7.65;;;;;;;27.13;53.95;99876.63;4353281;32;35501;-71
2023/08/22 00:46:23;;;;;;;12.05;6.57;;;;;;;27.08;54.05;99882.75;4360037;32;33908;-71
2023/08/22 00:48:51;;;;;;;8.95;6.43;;;;;;;27.09;54.00;99881.69;4354601;32;33637;-71
2023/08/22 00:51:19;;;;;;;9.18;6.62;;;;;;;27.09;54.02;99883.59;4345085;32;33200;-71
2023/08/22 00:53:47;;;;;;;13.05;7.45;;;;;;;27.05;54.13;99885.94;4358055;32;33902;-71
2023/08/22 00:56:15;;;;;;;8.68;6.97;;;;;;;26.98;54.39;99885.13;4338594;32;35277;-71
2023/08/22 00:58:43;;;;;;;10.20;7.07;;;;;;;26.88;54.67;99884.78;4350252;32;33777;-70
2023/08/22 01:01:11;;;;;;;13.62;7.62;;;;;;;26.84;54.78;99892.59;4356700;32;33205;-70
2023/08/22 01:03:39;;;;;;;13.68;6.37;;;;;;;26.86;54.65;99886.87;4351119;32;33414;-70
2023/08/22 01:06:11;;;;;;;12.23;6.75;;;;;;;26.61;55.36;99887.63;4356820;32;33765;-74
2023/08/22 01:08:40;;;;;;;10.70;6.28;;;;;;;26.45;55.97;99886.16;4341692;32;33803;-72
2023/08/22 01:11:27;;;;;;;13.85;7.25;;;;;;;26.35;56.33;99893.13;4341389;32;33365;-70
2023/08/22 01:13:56;;;;;;;9.65;6.15;;;;;;;26.34;56.34;99889.53;4357975;32;35075;-71
2023/08/22 01:16:24;;;;;;;9.77;6.47;;;;;;;26.30;56.25;99891.03;4343444;32;33778;-71
2023/08/22 01:18:52;;;;;;;11.27;6.97;;;;;;;26.43;55.85;99884.66;4343903;32;32236;-70
2023/08/22 01:21:20;;;;;;;10.02;6.85;;;;;;;26.38;56.02;99889.94;4344680;32;34186;-71
2023/08/22 01:23:47;;;;;;;8.50;5.68;;;;;;;26.50;55.56;99880.03;4357772;32;35004;-71
2023/08/22 01:26:16;;;;;;;12.23;5.93;;;;;;;26.54;55.36;99877.69;4352068;32;34472;-71
2023/08/22 01:28:51;;;;;;;8.70;5.57;;;;;;;26.36;55.84;99889.34;4358431;32;34335;-71
2023/08/22 01:31:32;;;;;;;8.25;6.00;;;;;;;26.48;55.50;99880.25;4359561;32;33210;-71
2023/08/22 01:34:20;;;;;;;9.73;6.53;;;;;;;26.43;55.65;99869.03;4359307;32;33939;-71
2023/08/22 01:36:49;;;;;;;9.90;7.10;;;;;;;26.53;55.34;99876.03;4358748;32;33828;-70
2023/08/22 01:39:18;;;;;;;8.38;5.72;;;;;;;26.49;55.33;99872.88;4350738;32;34746;-71
2023/08/22 01:41:47;;;;;;;8.20;4.97;;;;;;;26.36;55.74;99870.97;4337948;32;33313;-70
2023/08/22 01:44:15;;;;;;;9.32;7.00;;;;;;;26.41;55.69;99867.56;4343111;32;34814;-70
2023/08/22 01:46:42;;;;;;;8.57;5.82;;;;;;;26.41;55.65;99868.41;4359285;32;33670;-71
2023/08/22 01:49:11;;;;;;;8.93;5.62;;;;;;;26.43;55.59;99870.94;4358643;32;34755;-70
2023/08/22 01:51:39;;;;;;;10.82;6.85;;;;;;;26.48;55.38;99879.41;4345777;32;34487;-71
2023/08/22 01:54:06;;;;;;;11.38;7.18;;;;;;;26.42;55.44;99874.72;4351366;32;33693;-70
2023/08/22 01:56:34;;;;;;;9.98;6.20;;;;;;;26.36;55.51;99872.88;4349901;32;33625;-70
2023/08/22 01:59:02;;;;;;;10.00;6.65;;;;;;;26.27;55.66;99876.91;4352928;32;33920;-70
2023/08/22 02:01:30;;;;;;;12.95;5.70;;;;;;;26.35;55.38;99874.75;4357864;32;33467;-70
2023/08/22 02:04:03;;;;;;;8.77;6.03;;;;;;;26.38;55.20;99871.56;4352889;32;33698;-70
2023/08/22 02:06:31;;;;;;;8.75;6.97;;;;;;;26.40;55.14;99865.88;4359823;32;34794;-70
2023/08/22 02:08:59;;;;;;;10.10;5.68;;;;;;;26.43;55.00;99869.03;4352851;32;34363;-70
2023/08/22 02:11:27;;;;;;;9.07;6.70;;;;;;;26.48;54.81;99866.53;4353676;32;33188;-70
2023/08/22 02:13:57;;;;;;;12.52;9.80;;;;;;;26.48;54.75;99872.03;4353447;32;34782;-70
2023/08/22 02:16:25;;;;;;;11.27;6.28;;;;;;;26.33;55.12;99870.56;4358690;32;33633;-70
2023/08/22 02:18:54;;;;;;;8.60;6.37;;;;;;;26.37;55.03;99867.16;4359425;32;34566;-71
2023/08/22 02:21:22;;;;;;;10.23;7.20;;;;;;;26.38;55.02;99873.47;4360695;32;33211;-70
2023/08/22 02:23:49;;;;;;;9.60;6.20;;;;;;;26.41;54.96;99867.56;4360595;32;34193;-71
2023/08/22 02:26:17;;;;;;;9.20;5.53;;;;;;;26.43;54.91;99868.22;4357983;32;35317;-71
2023/08/22 02:28:45;;;;;;;10.60;7.18;;;;;;;26.43;54.76;99869.03;4353560;32;33422;-71
2023/08/22 02:31:12;;;;;;;9.52;7.12;;;;;;;26.42;54.83;99870.09;4360892;32;33339;-71
2023/08/22 02:33:43;;;;;;;10.18;7.22;;;;;;;26.39;54.89;99873.28;4356593;32;33595;-71
2023/08/22 02:36:10;;;;;;;9.52;7.03;;;;;;;26.38;54.92;99865.25;4359721;32;33993;-71
2023/08/22 02:38:40;;;;;;;8.90;6.32;;;;;;;26.36;55.07;99878.37;4357070;32;33691;-71
2023/08/22 02:41:08;;;;;;;9.00;6.78;;;;;;;26.41;54.92;99871.16;4349143;32;34317;-70
2023/08/22 02:43:36;;;;;;;10.35;7.40;;;;;;;26.42;54.91;99867.38;4355619;32;33692;-71
2023/08/22 02:46:06;;;;;;;9.73;7.22;;;;;;;26.37;55.02;99866.31;4360260;32;33823;-71
2023/08/22 02:48:34;;;;;;;12.73;6.50;;;;;;;26.25;55.40;99871.59;4355677;32;33859;-72
2023/08/22 02:51:04;;;;;;;8.73;5.30;;;;;;;26.33;55.10;99870.56;4349275;32;33456;-72
2023/08/22 02:53:31;;;;;;;8.93;6.50;;;;;;;26.33;55.05;99868.66;4356180;32;34032;-72
2023/08/22 02:56:00;;;;;;;9.82;6.75;;;;;;;26.28;55.21;99867.59;4358381;32;35025;-73
2023/08/22 02:58:27;;;;;;;9.48;5.45;;;;;;;26.33;55.18;99870.56;4328831;33;33961;-73
2023/08/22 03:00:55;;;;;;;10.70;7.10;;;;;;;26.35;55.11;99865.69;4327014;33;33285;-73
2023/08/22 03:03:23;;;;;;;11.50;8.07;;;;;;;26.27;55.29;99876.91;4323640;33;34530;-73
2023/08/22 03:05:50;;;;;;;11.18;8.68;;;;;;;26.27;55.26;99872.25;4316101;33;35183;-73
2023/08/22 03:08:18;;;;;;;9.63;5.30;;;;;;;26.21;55.40;99873.94;4329034;33;33809;-73
2023/08/22 03:10:46;;;;;;;10.82;5.72;;;;;;;26.27;55.28;99869.50;4311446;33;32251;-74
2023/08/22 03:13:14;;;;;;;10.30;5.68;;;;;;;26.34;55.06;99874.97;4313964;33;33523;-73
2023/08/22 03:15:41;;;;;;;9.70;6.00;;;;;;;26.31;55.16;99865.28;4315122;33;33968;-73
2023/08/22 03:18:10;;;;;;;10.48;6.25;;;;;;;26.26;55.23;99870.56;4315300;33;33865;-73
2023/08/22 03:20:37;;;;;;;8.02;5.20;;;;;;;26.22;55.43;99872.88;4313734;33;34303;-74
2023/08/22 03:23:05;;;;;;;9.05;6.18;;;;;;;26.17;55.77;99877.34;4303722;33;34673;-73
2023/08/22 03:25:33;;;;;;;9.88;7.30;;;;;;;26.19;55.83;99876.03;4315359;33;33798;-73
2023/08/22 03:28:01;;;;;;;10.20;7.07;;;;;;;26.20;55.75;99872.25;4315617;33;34727;-72
2023/08/22 03:30:28;;;;;;;10.35;7.70;;;;;;;26.17;55.75;99877.34;4314826;33;33031;-73
2023/08/22 03:32:56;;;;;;;12.05;7.60;;;;;;;26.12;55.76;99877.13;4314675;33;34583;-72
2023/08/22 03:35:24;;;;;;;10.95;7.10;;;;;;;26.09;55.86;99875.62;4320811;32;34828;-71
2023/08/22 03:37:51;;;;;;;10.63;6.90;;;;;;;26.15;55.66;99883.03;4343957;32;35170;-72
2023/08/22 03:40:20;;;;;;;11.82;7.53;;;;;;;26.16;55.65;99876.50;4343455;32;33372;-72
2023/08/22 03:42:48;;;;;;;16.08;7.03;;;;;;;26.19;55.62;99876.03;4357930;32;33303;-73
2023/08/22 03:45:15;;;;;;;11.75;7.28;;;;;;;26.19;55.63;99876.03;4361270;32;34851;-73
2023/08/22 03:47:43;;;;;;;11.90;8.93;;;;;;;26.27;55.46;99876.91;4353173;32;33727;-73
2023/08/22 03:50:11;;;;;;;11.60;7.87;;;;;;;26.24;55.43;99873.50;4358106;32;33933;-73
2023/08/22 03:52:39;;;;;;;10.38;6.80;;;;;;;26.15;55.63;99869.31;4360684;32;33735;-73
2023/08/22 03:55:07;;;;;;;9.02;6.30;;;;;;;26.19;55.71;99867.81;4352708;32;33911;-72
2023/08/22 03:57:34;;;;;;;10.50;6.87;;;;;;;26.24;55.85;99873.50;4356086;32;33891;-72
2023/08/22 04:00:04;;;;;;;9.60;6.93;;;;;;;26.29;55.82;99875.59;4358941;32;33545;-73
2023/08/22 04:02:40;;;;;;;10.18;5.40;;;;;;;26.29;55.80;99881.09;4353921;32;34017;-73
2023/08/22 04:05:09;;;;;;;12.37;6.62;;;;;;;26.34;55.61;99874.97;4355120;32;33816;-72
2023/08/22 04:07:36;;;;;;;11.77;7.50;;;;;;;26.35;55.53;99884.88;4359624;32;33473;-69
2023/08/22 04:10:05;;;;;;;9.07;6.68;;;;;;;26.35;55.42;99874.75;4356337;32;33079;-74
2023/08/22 04:12:33;;;;;;;11.52;7.93;;;;;;;26.20;55.80;99882.41;4359254;32;34936;-75
2023/08/22 04:15:01;;;;;;;10.60;7.05;;;;;;;26.14;55.97;99878.59;4352005;32;34136;-74
2023/08/22 04:17:28;;;;;;;13.00;6.70;;;;;;;26.11;56.07;99878.19;4357948;32;33780;-74
2023/08/22 04:19:56;;;;;;;10.48;7.03;;;;;;;26.08;56.09;99878.59;4361593;32;34338;-74
2023/08/22 04:22:24;;;;;;;13.93;7.90;;;;;;;26.17;55.97;99878.19;4353156;32;34689;-74
2023/08/22 04:24:51;;;;;;;9.45;6.80;;;;;;;26.23;55.79;99877.31;4356218;32;34962;-76
2023/08/22 04:27:20;;;;;;;9.90;7.45;;;;;;;26.29;55.57;99880.25;4355861;32;33934;-75
2023/08/22 04:29:48;;;;;;;9.52;7.20;;;;;;;26.36;55.28;99872.88;4358520;32;33189;-71
2023/08/22 04:32:15;;;;;;;10.23;9.15;;;;;;;26.44;54.94;99878.94;4355629;32;33609;-72
2023/08/22 04:34:43;;;;;;;12.13;7.10;;;;;;;26.43;54.97;99882.75;4362094;32;32185;-72
2023/08/22 04:37:11;;;;;;;9.50;5.95;;;;;;;26.46;55.07;99876.84;4361066;32;34490;-72
2023/08/22 04:39:39;;;;;;;11.30;6.45;;;;;;;26.45;55.32;99877.91;4361320;32;33325;-72
2023/08/22 04:42:08;;;;;;;10.00;7.25;;;;;;;26.71;54.76;99882.50;4361429;32;33888;-71
2023/08/22 04:44:36;;;;;;;10.18;6.68;;;;;;;26.85;54.42;99879.72;4360948;32;33662;-71
2023/08/22 04:47:04;;;;;;;14.38;7.32;;;;;;;26.87;54.30;99883.94;4361972;32;33722;-73
2023/08/22 04:49:32;;;;;;;11.75;8.35;;;;;;;26.86;54.52;99882.22;4360957;32;33526;-74
2023/08/22 04:51:59;;;;;;;13.32;7.70;;;;;;;26.92;54.60;99881.34;4361767;32;34119;-74
2023/08/22 04:54:27;;;;;;;10.45;7.93;;;;;;;26.98;54.59;99890.62;4361616;32;33741;-73
2023/08/22 04:56:56;;;;;;;11.55;6.97;;;;;;;27.04;54.55;99897.16;4360978;32;33449;-73
2023/08/22 04:59:23;;;;;;;12.37;7.50;;;;;;;27.10;54.47;99890.81;4361534;32;34440;-73
2023/08/22 05:01:51;;;;;;;9.45;6.90;;;;;;;27.10;54.35;99899.03;4360264;32;33819;-77
2023/08/22 05:04:19;;;;;;;13.75;10.45;;;;;;;27.13;54.33;99906.84;4358442;32;34146;-74
2023/08/22 05:06:48;;;;;;;11.90;8.15;;;;;;;27.13;54.44;99904.97;4351119;32;34970;-74
2023/08/22 05:09:16;;;;;;;13.77;9.10;;;;;;;27.21;54.42;99901.13;4358915;32;34580;-74
2023/08/22 05:11:44;;;;;;;11.70;7.40;;;;;;;27.26;54.41;99904.06;4361641;32;34792;-74
2023/08/22 05:14:12;;;;;;;11.38;7.50;;;;;;;27.28;54.30;99912.06;4361158;32;34035;-74
2023/08/22 05:16:42;;;;;;;11.48;7.40;;;;;;;27.33;54.18;99907.59;4355632;32;34788;-73
2023/08/22 05:19:11;;;;;;;13.07;6.95;;;;;;;27.41;54.20;99914.72;4359095;32;33120;-74
2023/08/22 05:21:39;;;;;;;10.18;7.47;;;;;;;27.52;53.92;99914.03;4361705;32;33704;-74
2023/08/22 05:24:07;;;;;;;11.90;8.30;;;;;;;27.76;53.11;99908.81;4361794;32;34767;-74
2023/08/22 05:26:35;;;;;;;11.15;8.20;;;;;;;27.99;52.90;99913.72;4359596;32;33935;-74
2023/08/22 05:29:03;;;;;;;11.27;9.75;;;;;;;28.24;52.03;99916.47;4361428;32;33846;-74
2023/08/22 05:31:31;;;;;;;12.30;8.80;;;;;;;28.62;51.21;99918.25;4359679;32;34935;-74
2023/08/22 05:33:59;;;;;;;9.43;7.50;;;;;;;28.90;50.56;99909.44;4358000;32;33816;-78
2023/08/22 05:36:26;;;;;;;13.15;8.73;;;;;;;29.43;49.34;99911.53;4358061;32;32675;-75
2023/08/22 05:38:54;;;;;;;10.70;7.78;;;;;;;29.54;49.12;99905.22;4361053;32;34363;-74
2023/08/22 05:41:22;;;;;;;14.23;9.48;;;;;;;29.59;49.30;99918.28;4358474;32;33796;-75
2023/08/22 05:43:50;;;;;;;12.02;10.18;;;;;;;30.48;47.20;99912.84;4354483;32;34847;-75
2023/08/22 05:46:17;;;;;;;10.30;8.82;;;;;;;31.31;45.16;99915.19;4359307;32;32702;-74
2023/08/22 05:48:46;;;;;;;15.35;8.43;;;;;;;32.12;43.55;99903.09;4361366;32;33506;-75
2023/08/22 05:51:13;;;;;;;11.55;9.38;;;;;;;32.69;41.84;99909.25;4359385;32;34492;-75
2023/08/22 05:53:41;;;;;;;12.43;9.82;;;;;;;32.47;42.35;99913.91;4358537;32;34946;-75
2023/08/22 05:56:09;;;;;;;14.77;9.85;;;;;;;32.24;42.93;99912.16;4360279;32;33974;-75
2023/08/22 05:58:37;;;;;;;10.60;9.00;;;;;;;31.99;43.49;99920.88;4360272;32;32340;-74
2023/08/22 06:01:13;;;;;;;15.77;9.88;;;;;;;31.69;44.23;99916.47;4351203;32;34722;-75
2023/08/22 06:03:41;;;;;;;14.57;10.73;;;;;;;31.44;44.71;99925.13;4359258;32;33995;-75
2023/08/22 06:06:08;;;;;;;12.37;10.65;;;;;;;31.22;45.14;99927.72;4355892;32;34292;-75
2023/08/22 06:08:36;;;;;;;13.55;10.68;;;;;;;30.94;46.19;99925.75;4358229;32;33223;-75
2023/08/22 06:11:04;;;;;;;14.93;10.98;;;;;;;30.93;46.74;99928.78;4357356;32;33345;-74
2023/08/22 06:13:32;;;;;;;11.88;9.48;;;;;;;30.45;46.41;99924.34;4358587;32;33818;-74
2023/08/22 06:15:59;;;;;;;13.07;9.40;;;;;;;30.54;46.73;99928.44;4357057;32;34349;-75
2023/08/22 06:18:27;;;;;;;13.32;8.90;;;;;;;30.40;46.87;99925.06;4358748;32;34551;-76
2023/08/22 06:20:59;;;;;;;14.77;10.88;;;;;;;30.39;46.92;99924.22;4355524;32;34821;-77
2023/08/22 06:23:27;;;;;;;13.82;11.12;;;;;;;30.41;47.78;99921.25;4360241;32;33518;-73
2023/08/22 06:25:56;;;;;;;11.68;8.95;;;;;;;30.30;48.40;99922.06;4352019;32;34693;-73
2023/08/22 06:28:23;;;;;;;12.57;8.45;;;;;;;30.14;47.92;99920.81;4357635;32;34771;-74
2023/08/22 06:30:51;;;;;;;16.55;8.88;;;;;;;30.25;48.01;99925.56;4359528;32;33640;-75
2023/08/22 06:33:19;;;;;;;18.80;11.25;;;;;;;30.30;48.53;99911.84;4357893;32;34846;-74
2023/08/22 06:35:47;;;;;;;13.98;8.45;;;;;;;30.37;48.20;99920.88;4358095;32;34130;-73
2023/08/22 06:38:15;;;;;;;11.95;8.98;;;;;;;30.31;47.99;99927.38;4359276;32;33070;-73
2023/08/22 06:40:43;;;;;;;10.82;9.25;;;;;;;30.49;48.00;99928.31;4352493;32;34545;-73
2023/08/22 06:43:11;;;;;;;16.02;8.80;;;;;;;30.34;46.92;99921.38;4353838;32;33933;-73
2023/08/22 06:45:38;;;;;;;10.00;8.85;;;;;;;30.55;47.25;99927.34;4353186;32;34281;-73
2023/08/22 06:48:07;;;;;;;12.43;7.93;;;;;;;30.44;45.84;99925.44;4355061;32;33571;-74
2023/08/22 06:50:35;;;;;;;12.43;8.18;;;;;;;30.17;46.84;99923.94;4359324;32;33723;-74
2023/08/22 06:53:03;;;;;;;12.13;8.07;;;;;;;30.03;46.84;99921.66;4357452;32;33702;-73
2023/08/22 06:55:30;;;;;;;12.48;7.90;;;;;;;30.10;46.94;99922.38;4362536;32;35026;-74
2023/08/22 06:57:58;;;;;;;10.02;8.68;;;;;;;30.11;47.08;99919.41;4357673;32;34179;-74
2023/08/22 07:00:26;;;;;;;12.88;10.57;;;;;;;29.91;47.48;99918.88;4365047;32;33337;-74
2023/08/22 07:02:53;;;;;;;14.23;10.98;;;;;;;30.00;47.79;99924.91;4360432;32;35393;-75
2023/08/22 07:05:21;;;;;;;11.70;9.48;;;;;;;30.00;46.86;99922.13;4358233;32;34068;-74
2023/08/22 07:07:49;;;;;;;11.88;9.02;;;;;;;30.16;46.92;99914.00;4359895;32;32815;-74
2023/08/22 07:10:17;;;;;;;11.98;8.60;;;;;;;30.22;47.16;99922.44;4365611;32;33759;-74
2023/08/22 07:12:46;;;;;;;12.27;8.38;;;;;;;30.33;46.20;99922.44;4353367;32;34098;-74
2023/08/22 07:15:14;;;;;;;11.57;8.50;;;;;;;30.16;47.50;99924.19;4348272;32;34283;-72
2023/08/22 07:17:41;;;;;;;12.95;9.75;;;;;;;30.43;46.42;99932.03;4359955;32;33269;-73
2023/08/22 07:20:13;;;;;;;12.90;8.13;;;;;;;30.49;46.48;99925.56;4359291;32;33622;-72
2023/08/22 07:22:41;;;;;;;15.48;9.20;;;;;;;30.44;47.04;99931.81;4362689;32;35011;-73
2023/08/22 07:25:09;;;;;;;13.48;8.93;;;;;;;30.62;47.33;99925.28;4362375;32;33978;-73
2023/08/22 07:27:37;;;;;;;12.35;8.25;;;;;;;30.53;47.36;99924.84;4360492;32;33470;-73
2023/08/22 07:30:06;;;;;;;13.55;9.73;;;;;;;30.58;46.83;99927.72;4360720;32;33843;-73
2023/08/22 07:32:33;;;;;;;16.83;9.23;;;;;;;30.68;47.48;99929.03;4359262;32;34972;-73
2023/08/22 07:35:01;;;;;;;11.63;9.85;;;;;;;31.05;46.64;99926.81;4360398;32;34269;-73
2023/08/22 07:37:29;;;;;;;12.90;9.50;;;;;;;31.15;46.99;99921.50;4360328;32;33130;-73
2023/08/22 07:39:56;;;;;;;12.90;9.77;;;;;;;31.20;47.07;99923.50;4348111;32;34659;-72
2023/08/22 07:42:24;;;;;;;14.07;9.25;;;;;;;31.39;47.05;99922.25;4356712;32;35290;-73
2023/08/22 07:44:52;;;;;;;12.50;10.27;;;;;;;31.26;46.02;99928.06;4353359;32;35192;-72
2023/08/22 07:47:19;;;;;;;12.07;9.77;;;;;;;31.37;46.51;99921.69;4356672;32;33297;-73
2023/08/22 07:49:47;;;;;;;12.63;9.40;;;;;;;31.46;46.11;99925.75;4360208;32;33794;-73
2023/08/22 07:52:15;;;;;;;13.05;9.80;;;;;;;31.32;46.64;99916.03;4361021;32;34031;-73
2023/08/22 07:54:42;;;;;;;10.35;8.90;;;;;;;31.44;47.16;99916.00;4359014;32;35591;-73
2023/08/22 07:57:11;;;;;;;12.02;9.65;;;;;;;31.54;46.83;99913.44;4358213;32;33294;-73
2023/08/22 07:59:46;;;;;;;13.00;9.77;;;;;;;31.66;46.96;99911.44;4357993;32;34206;-73
2023/08/22 08:02:13;;;;;;;12.37;9.32;;;;;;;31.80;45.88;99914.72;4356462;32;33787;-72
2023/08/22 08:04:41;;;;;;;15.50;9.75;;;;;;;31.83;46.85;99913.38;4357904;32;34928;-74
2023/08/22 08:07:09;;;;;;;12.93;9.57;;;;;;;31.78;47.28;99919.66;4360294;32;34372;-73
2023/08/22 08:09:36;;;;;;;12.68;9.70;;;;;;;31.75;46.31;99921.03;4356405;32;33954;-73
2023/08/22 08:12:05;;;;;;;14.32;9.55;;;;;;;31.54;47.56;99914.25;4357268;32;32680;-74
2023/08/22 08:14:33;;;;;;;12.57;10.52;;;;;;;31.76;46.98;99914.38;4358990;32;35044;-74
2023/08/22 08:17:00;;;;;;;13.60;10.07;;;;;;;31.97;47.30;99915.59;4349330;32;32640;-75
2023/08/22 08:19:28;;;;;;;14.48;10.80;;;;;;;32.04;46.28;99923.75;4348862;32;33861;-74
2023/08/22 08:21:56;;;;;;;15.30;10.77;;;;;;;31.99;46.94;99931.97;4361846;32;33830;-73
2023/08/22 08:24:24;;;;;;;14.60;10.48;;;;;;;31.95;46.10;99922.50;4353547;32;33755;-73
2023/08/22 08:26:51;;;;;;;14.38;11.18;;;;;;;32.09;45.70;99925.75;4360818;32;33491;-73
2023/08/22 08:29:19;;;;;;;13.35;10.07;;;;;;;31.94;45.55;99918.91;4362076;32;33650;-73
2023/08/22 08:31:47;;;;;;;12.65;9.70;;;;;;;32.34;44.43;99922.56;4361832;32;34158;-73
2023/08/22 08:34:15;;;;;;;13.85;9.75;;;;;;;32.11;45.63;99923.59;4360801;32;34919;-73
2023/08/22 08:36:42;;;;;;;16.73;10.13;;;;;;;32.51;44.92;99925.34;4355855;32;33906;-73
2023/08/22 08:39:10;;;;;;;13.75;10.25;;;;;;;31.94;45.17;99924.44;4360372;32;34918;-74
2023/08/22 08:41:43;;;;;;;13.85;9.77;;;;;;;32.38;44.83;99913.47;4361175;32;33535;-74
2023/08/22 08:44:13;;;;;;;13.85;10.20;;;;;;;32.13;45.71;99921.38;4348140;32;34267;-73
2023/08/22 08:46:43;;;;;;;11.50;9.15;;;;;;;32.50;42.85;99909.81;4329040;33;34558;-73
2023/08/22 08:49:10;;;;;;;13.82;9.90;;;;;;;32.53;42.67;99920.38;4327248;33;33604;-73
2023/08/22 08:51:38;;;;;;;12.30;9.77;;;;;;;32.74;42.71;99914.00;4329824;33;33676;-73
2023/08/22 08:54:06;;;;;;;13.32;10.35;;;;;;;32.58;43.51;99910.19;4329389;33;34713;-74
2023/08/22 08:56:33;;;;;;;13.85;10.35;;;;;;;32.86;42.44;99914.72;4329256;33;33551;-74
2023/08/22 08:59:01;;;;;;;13.25;10.70;;;;;;;33.02;41.75;99915.81;4328226;32;33337;-74
2023/08/22 09:01:29;;;;;;;15.32;10.57;;;;;;;33.02;40.78;99914.97;4313608;33;33831;-74
2023/08/22 09:03:57;;;;;;;12.35;10.27;;;;;;;33.09;40.76;99905.34;4308320;33;33676;-74
2023/08/22 09:06:24;;;;;;;13.50;9.57;;;;;;;33.11;40.53;99907.88;4310301;33;35328;-74
2023/08/22 09:09:08;;;;;;;13.65;9.82;;;;;;;32.99;40.50;99896.91;4311927;33;33543;-74
2023/08/22 09:11:41;;;;;;;12.13;10.45;;;;;;;32.99;41.09;99902.44;4314619;33;34137;-74
2023/08/22 09:14:21;;;;;;;11.40;9.55;;;;;;;33.08;41.77;99900.06;4312285;33;34013;-74
2023/08/22 09:16:49;;;;;;;13.57;10.10;;;;;;;32.82;40.49;99894.19;4306573;33;33553;-74
2023/08/22 09:19:17;;;;;;;12.48;10.55;;;;;;;33.11;41.36;99889.28;4306551;33;33441;-75
2023/08/22 09:22:02;;;;;;;13.98;9.68;;;;;;;32.34;40.78;99897.62;4308446;33;34149;-75
2023/08/22 09:24:31;;;;;;;12.55;9.30;;;;;;;33.15;39.19;99886.84;4289491;33;32735;-74
2023/08/22 09:27:05;;;;;;;14.02;9.70;;;;;;;33.26;39.43;99890.56;4314609;33;33650;-74
2023/08/22 09:29:34;;;;;;;11.98;9.32;;;;;;;33.27;40.46;99883.94;4313827;33;33608;-75
2023/08/22 09:32:01;;;;;;;12.68;9.85;;;;;;;33.39;40.30;99881.84;4319926;33;33878;-74
2023/08/22 09:34:30;;;;;;;12.10;10.10;;;;;;;33.78;39.61;99887.25;4341988;32;34910;-74
2023/08/22 09:36:58;;;;;;;13.70;9.93;;;;;;;33.52;38.83;99887.00;4343175;32;33607;-73
2023/08/22 09:39:26;;;;;;;10.73;9.63;;;;;;;33.47;38.79;99889.69;4342875;32;33915;-74
2023/08/22 09:41:58;;;;;;;10.90;8.88;;;;;;;33.76;38.78;99883.88;4341357;32;34335;-74
2023/08/22 09:44:27;;;;;;;12.15;9.60;;;;;;;33.88;37.51;99879.00;4341927;32;35320;-74
2023/08/22 09:46:57;;;;;;;10.48;9.38;;;;;;;34.26;36.23;99869.59;4339798;32;33164;-74
2023/08/22 09:49:24;;;;;;;12.30;8.65;;;;;;;34.31;37.40;99871.53;4340740;32;33438;-74
2023/08/22 09:51:55;;;;;;;11.68;8.93;;;;;;;34.34;38.05;99864.63;4342605;32;35174;-74
2023/08/22 09:54:23;;;;;;;11.90;8.68;;;;;;;34.57;37.72;99871.72;4338014;32;33698;-74
2023/08/22 09:56:51;;;;;;;11.20;8.88;;;;;;;34.61;36.27;99861.72;4357022;32;33325;-73
2023/08/22 09:59:19;;;;;;;10.75;8.82;;;;;;;34.26;37.32;99861.25;4346693;32;33690;-74
2023/08/22 10:01:48;;;;;;;11.07;9.13;;;;;;;34.24;35.69;99863.44;4357010;32;33634;-74
2023/08/22 10:04:17;;;;;;;12.48;8.75;;;;;;;34.58;36.23;99863.13;4353857;32;33692;-74
2023/08/22 10:06:47;;;;;;;11.05;8.52;;;;;;;35.07;34.55;99864.75;4356935;32;31298;-74
2023/08/22 10:09:19;;;;;;;;;;;;;;;34.96;34.95;99858.25;4357944;32;35048;-74
2023/08/22 10:11:58;;;;;;;11.52;9.68;;;;;;;35.22;35.03;99862.84;4344374;32;33576;-73
2023/08/22 10:14:31;;;;;;;12.30;9.75;;;;;;;34.72;36.27;99857.91;4325045;33;34755;-74
2023/08/22 10:16:59;;;;;;;16.42;9.73;;;;;;;34.73;36.40;99856.78;4328079;32;33290;-74
2023/08/22 10:19:29;;;;;;;10.25;8.43;;;;;;;35.03;35.97;99858.91;4319925;33;33865;-74
2023/08/22 10:22:07;;;;;;;12.10;9.43;;;;;;;35.75;34.62;99845.94;4294024;33;35093;-74
2023/08/22 10:24:36;;;;;;;11.77;9.18;;;;;;;35.60;34.79;99845.94;4293307;33;33220;-74
2023/08/22 10:27:05;;;;;;;10.48;9.20;;;;;;;35.15;34.50;99847.50;4292670;33;33358;-74
2023/08/22 10:29:35;;;;;;;14.00;9.63;;;;;;;35.52;34.40;99844.50;4293440;33;33134;-74
2023/08/22 10:32:03;;;;;;;9.93;8.27;;;;;;;35.28;34.80;99843.34;4292163;33;34891;-74
2023/08/22 10:34:39;;;;;;;10.98;8.77;;;;;;;34.79;34.64;99839.03;4295410;33;34016;-74
2023/08/22 10:37:36;;;;;;;12.73;8.68;;;;;;;35.48;33.60;99837.84;4294732;33;34038;-76
2023/08/22 10:40:06;;;;;;;12.52;9.30;;;;;;;36.08;32.38;99836.19;4270697;33;36118;-75
2023/08/22 10:42:36;;;;;;;12.32;9.13;;;;;;;36.10;32.41;99830.34;4253905;33;35530;-75
2023/08/22 10:45:16;;;;;;;12.80;9.45;;;;;;;35.71;34.33;99836.47;4255982;33;34097;-75
2023/08/22 10:47:49;;;;;;;11.73;9.38;;;;;;;36.06;33.72;99829.25;4254646;33;34074;-75
2023/08/22 10:50:17;;;;;;;11.00;8.68;;;;;;;35.87;34.65;99840.09;4245574;33;33635;-76
2023/08/22 10:52:44;;;;;;;12.32;9.38;;;;;;;36.24;34.24;99831.41;4261786;33;33716;-74
2023/08/22 10:55:13;;;;;;;13.60;9.45;;;;;;;36.48;33.20;99836.38;4304192;33;34278;-74
2023/08/22 10:57:44;;;;;;;9.95;8.95;;;;;;;36.55;32.70;99829.41;4304135;33;34336;-75
2023/08/22 11:00:19;;;;;;;12.32;8.63;;;;;;;36.53;32.58;99831.63;4286760;33;33784;-76
2023/08/22 11:02:56;;;;;;;9.18;7.45;;;;;;;36.55;32.88;99828.56;4288168;33;33732;-74
2023/08/22 11:05:25;;;;;;;12.25;7.75;;;;;;;36.77;31.07;99825.41;4299019;33;35271;-75
2023/08/22 11:07:52;;;;;;;9.05;7.93;;;;;;;36.93;31.93;99826.19;4288473;33;33534;-76
2023/08/22 11:10:24;;;;;;;11.38;8.52;;;;;;;36.57;30.84;99823.56;4287544;33;36275;-75
2023/08/22 11:12:56;;;;;;;10.63;9.05;;;;;;;37.01;31.47;99817.22;4286183;33;34189;-75
2023/08/22 11:15:23;;;;;;;11.00;8.70;;;;;;;36.95;32.38;99824.78;4298247;33;34882;-77
2023/08/22 11:17:51;;;;;;;11.85;8.27;;;;;;;37.01;31.80;99818.06;4336377;33;34709;-75
2023/08/22 11:20:20;;;;;;;11.12;8.13;;;;;;;36.61;30.04;99821.88;4344606;32;33976;-75
2023/08/22 11:22:48;;;;;;;13.60;8.63;;;;;;;36.81;30.57;99824.56;4342238;32;34220;-75
2023/08/22 11:25:24;;;;;;;15.32;8.13;;;;;;;36.93;29.96;99818.63;4335961;33;35025;-76
2023/08/22 11:27:52;;;;;;;9.02;7.65;;;;;;;37.21;31.00;99813.47;4341344;33;33684;-75
2023/08/22 11:30:20;;;;;;;9.82;8.45;;;;;;;36.88;30.58;99812.25;4339782;33;34633;-75
2023/08/22 11:32:48;;;;;;;16.98;9.48;;;;;;;37.18;31.26;99814.91;4338581;33;34341;-77
2023/08/22 11:35:17;;;;;;;11.25;8.30;;;;;;;37.03;30.22;99803.84;4345371;33;34724;-75